Time;durP1;ratioP1;P1;durP2;ratioP2;P2;SDS_P1;SDS_P2;PMS_P1;PMS_P2;Temp;Humidity;BMP_temperature;BMP_pressure;BME280_temperature;BME280_humidity;BME280_pressure;Samples;Min_cycle;Max_cycle;Signal;HPM_P1;HPM_P2
2021/07/17 00:00:29;;;;;;;6.37;2.57;;;16.10;99.90;;;;;;5080656;28;20204;-80
2021/07/17 00:02:55;;;;;;;2.77;2.50;;;16.10;99.90;;;;;;5079733;28;20588;-80
2021/07/17 00:05:21;;;;;;;3.43;2.50;;;16.00;99.90;;;;;;5077725;28;20169;-80
2021/07/17 00:07:47;;;;;;;2.90;2.60;;;16.00;99.90;;;;;;5075809;28;20177;-80
2021/07/17 00:10:26;;;;;;;4.87;3.27;;;16.00;99.90;;;;;;5080112;28;20228;-81
2021/07/17 00:12:52;;;;;;;6.40;2.90;;;16.00;99.90;;;;;;5081460;28;20497;-80
2021/07/17 00:15:21;;;;;;;3.83;2.37;;;15.90;99.90;;;;;;5081768;28;20165;-80
2021/07/17 00:17:47;;;;;;;2.83;2.50;;;15.80;99.90;;;;;;5080994;28;20168;-80
2021/07/17 00:20:14;;;;;;;4.17;2.80;;;15.80;99.90;;;;;;5080009;28;20200;-80
2021/07/17 00:22:40;;;;;;;3.20;2.90;;;15.70;99.90;;;;;;5082054;28;20222;-80
2021/07/17 00:25:12;;;;;;;3.10;2.80;;;15.70;99.90;;;;;;5088554;28;20180;-81
2021/07/17 00:27:38;;;;;;;3.90;3.00;;;15.70;99.90;;;;;;5091357;28;20192;-80
2021/07/17 00:30:06;;;;;;;3.10;2.80;;;15.70;99.90;;;;;;5089966;28;20200;-80
2021/07/17 00:32:31;;;;;;;3.23;2.80;;;15.60;99.90;;;;;;5087530;28;20264;-80
2021/07/17 00:34:57;;;;;;;3.40;3.00;;;15.60;99.90;;;;;;5082615;28;20606;-80
2021/07/17 00:37:22;;;;;;;4.87;2.83;;;15.60;99.90;;;;;;5080166;28;20180;-80
2021/07/17 00:39:48;;;;;;;5.03;3.30;;;15.50;99.90;;;;;;5081910;28;20173;-81
2021/07/17 00:42:14;;;;;;;3.63;2.77;;;15.50;99.90;;;;;;5083260;28;20208;-81
2021/07/17 00:44:39;;;;;;;3.23;2.93;;;15.50;99.90;;;;;;5082695;28;20579;-81
2021/07/17 00:47:07;;;;;;;4.77;3.57;;;15.40;99.90;;;;;;5083244;28;20222;-80
2021/07/17 00:49:32;;;;;;;5.43;3.53;;;15.40;99.90;;;;;;5082790;28;20168;-80
2021/07/17 00:51:58;;;;;;;3.80;3.50;;;15.40;99.90;;;;;;5079348;28;20554;-81
2021/07/17 00:54:26;;;;;;;4.30;3.90;;;15.40;99.90;;;;;;5078954;28;20173;-81
2021/07/17 00:56:53;;;;;;;5.33;3.67;;;15.40;99.90;;;;;;5079677;28;20222;-80
2021/07/17 00:59:23;;;;;;;4.53;3.53;;;15.30;99.90;;;;;;5078227;28;20203;-80
2021/07/17 01:01:52;;;;;;;4.00;3.40;;;15.30;99.90;;;;;;5077851;28;20213;-80
2021/07/17 01:04:19;;;;;;;3.30;3.00;;;15.30;99.90;;;;;;5079937;28;20165;-81
2021/07/17 01:06:45;;;;;;;4.60;3.10;;;15.40;99.90;;;;;;5078487;28;20191;-80
2021/07/17 01:09:11;;;;;;;4.53;3.50;;;15.40;99.90;;;;;;5076402;28;20267;-80
2021/07/17 01:11:37;;;;;;;4.77;2.83;;;15.40;99.90;;;;;;5074600;28;20561;-80
2021/07/17 01:14:03;;;;;;;3.27;2.97;;;15.50;99.90;;;;;;5078538;28;20177;-80
2021/07/17 01:16:31;;;;;;;6.80;3.33;;;15.40;99.90;;;;;;5078563;28;20197;-81
2021/07/17 01:18:56;;;;;;;5.40;3.43;;;15.40;99.90;;;;;;5080040;28;20573;-81
2021/07/17 01:21:22;;;;;;;5.77;3.67;;;15.50;99.90;;;;;;5083159;28;20196;-81
2021/07/17 01:23:48;;;;;;;4.47;3.53;;;15.50;99.90;;;;;;5081747;28;20179;-81
2021/07/17 01:26:15;;;;;;;3.67;3.13;;;15.50;99.90;;;;;;5083313;28;20165;-80
2021/07/17 01:28:41;;;;;;;5.70;3.40;;;15.50;99.90;;;;;;5081655;28;20224;-81
2021/07/17 01:31:08;;;;;;;3.17;2.87;;;15.50;99.90;;;;;;5082938;28;20207;-81
2021/07/17 01:33:34;;;;;;;4.17;3.20;;;15.50;99.90;;;;;;5083304;28;20169;-80
2021/07/17 01:36:00;;;;;;;4.17;3.27;;;15.50;99.90;;;;;;5081945;28;20187;-81
2021/07/17 01:38:27;;;;;;;4.40;3.10;;;15.50;99.90;;;;;;5080943;28;20264;-81
2021/07/17 01:40:53;;;;;;;3.43;3.13;;;15.50;99.90;;;;;;5081208;28;20228;-81
2021/07/17 01:43:18;;;;;;;3.13;2.83;;;15.50;99.90;;;;;;5081610;28;20216;-81
2021/07/17 01:45:47;;;;;;;3.20;2.90;;;15.50;99.90;;;;;;5081856;28;20232;-81
2021/07/17 01:48:14;;;;;;;3.57;3.27;;;15.50;99.90;;;;;;5083304;28;20696;-81
2021/07/17 01:50:42;;;;;;;5.03;3.63;;;15.50;99.90;;;;;;5079278;28;20204;-80
2021/07/17 01:53:10;;;;;;;5.17;3.43;;;15.60;99.90;;;;;;5077198;28;20177;-80
2021/07/17 01:55:37;;;;;;;3.93;3.50;;;15.60;99.90;;;;;;5081230;28;20215;-81
2021/07/17 01:58:07;;;;;;;4.27;3.83;;;15.60;99.90;;;;;;5081289;28;20176;-81
2021/07/17 02:00:32;;;;;;;3.93;3.53;;;15.60;99.90;;;;;;5081511;28;20282;-81
2021/07/17 02:02:58;;;;;;;3.70;3.23;;;15.70;99.90;;;;;;5083088;28;20184;-81
2021/07/17 02:05:24;;;;;;;4.10;3.80;;;15.70;99.90;;;;;;5082074;28;20181;-81
2021/07/17 02:07:51;;;;;;;4.27;3.80;;;15.70;99.90;;;;;;5083454;28;20177;-81
2021/07/17 02:10:20;;;;;;;4.10;3.70;;;15.70;99.90;;;;;;5081378;28;20665;-81
2021/07/17 02:13:15;;;;;;;4.83;4.00;;;15.70;99.90;;;;;;5083381;28;20181;-81
2021/07/17 02:15:49;;;;;;;4.70;3.87;;;15.70;99.90;;;;;;5072810;28;20200;-81
2021/07/17 02:18:24;;;;;;;6.80;4.67;;;15.70;99.90;;;;;;5081817;28;20184;-81
2021/07/17 02:20:50;;;;;;;6.07;5.40;;;15.70;99.90;;;;;;5083749;28;20200;-81
2021/07/17 02:23:15;;;;;;;5.30;4.80;;;15.70;99.90;;;;;;5082690;28;20176;-81
2021/07/17 02:25:41;;;;;;;5.60;5.00;;;15.70;99.90;;;;;;5082453;28;20184;-81
2021/07/17 02:28:07;;;;;;;6.50;5.47;;;15.70;99.90;;;;;;5084098;28;20268;-81
2021/07/17 02:30:33;;;;;;;9.03;5.10;;;15.80;99.90;;;;;;5080819;28;20575;-81
2021/07/17 02:32:59;;;;;;;5.43;4.67;;;15.80;99.90;;;;;;5083348;28;20180;-81
2021/07/17 02:35:25;;;;;;;6.20;5.10;;;15.70;99.90;;;;;;5082611;28;20226;-81
2021/07/17 02:37:50;;;;;;;5.30;4.80;;;15.70;99.90;;;;;;5081833;28;20658;-81
2021/07/17 02:40:16;;;;;;;7.83;5.03;;;15.70;99.90;;;;;;5082629;28;20169;-81
2021/07/17 02:42:42;;;;;;;5.53;5.03;;;15.70;99.90;;;;;;5081453;28;20212;-81
2021/07/17 02:45:08;;;;;;;5.77;5.17;;;15.60;99.90;;;;;;5083288;28;20175;-81
2021/07/17 02:47:34;;;;;;;6.80;5.80;;;15.60;99.90;;;;;;5082585;28;20184;-81
2021/07/17 02:50:01;;;;;;;6.03;5.43;;;15.70;99.90;;;;;;5083656;28;20206;-81
2021/07/17 02:52:26;;;;;;;6.37;5.47;;;15.70;99.90;;;;;;5083366;28;20201;-81
2021/07/17 02:54:52;;;;;;;8.07;5.83;;;15.70;99.90;;;;;;5083299;28;20250;-81
2021/07/17 02:57:18;;;;;;;6.30;5.70;;;15.70;99.90;;;;;;5084926;28;20185;-81
2021/07/17 02:59:43;;;;;;;7.90;5.50;;;15.70;99.90;;;;;;5086827;28;20203;-81
2021/07/17 03:02:09;;;;;;;9.47;5.80;;;15.70;99.90;;;;;;5088834;28;20189;-80
2021/07/17 03:04:35;;;;;;;8.07;5.70;;;15.80;99.90;;;;;;5078340;28;20177;-80
2021/07/17 03:07:01;;;;;;;7.10;5.43;;;15.80;99.90;;;;;;5075369;28;20183;-80
2021/07/17 03:09:26;;;;;;;7.57;6.03;;;15.80;99.90;;;;;;5082551;28;20191;-80
2021/07/17 03:11:52;;;;;;;7.77;6.97;;;15.80;99.90;;;;;;5087770;28;20211;-81
2021/07/17 03:14:19;;;;;;;7.30;6.50;;;15.80;99.90;;;;;;5083517;28;20647;-81
2021/07/17 03:16:44;;;;;;;8.20;7.10;;;15.80;99.90;;;;;;5083326;28;20188;-81
2021/07/17 03:19:10;;;;;;;9.80;6.83;;;15.90;99.90;;;;;;5083504;28;20172;-81
2021/07/17 03:21:36;;;;;;;7.27;6.07;;;15.90;99.90;;;;;;5084429;28;20228;-81
2021/07/17 03:24:01;;;;;;;8.77;7.57;;;15.90;99.90;;;;;;5084172;28;20172;-81
2021/07/17 03:26:27;;;;;;;9.57;6.97;;;15.90;99.90;;;;;;5085266;28;20183;-81
2021/07/17 03:28:53;;;;;;;8.63;7.73;;;15.90;99.90;;;;;;5085437;28;20240;-81
2021/07/17 03:31:29;;;;;;;9.63;8.30;;;15.90;99.90;;;;;;5085858;28;20287;-81
2021/07/17 03:33:56;;;;;;;9.27;8.23;;;15.90;99.90;;;;;;5087096;28;20192;-80
2021/07/17 03:36:22;;;;;;;9.17;8.10;;;15.90;99.90;;;;;;5085964;28;20176;-80
2021/07/17 03:38:48;;;;;;;12.07;8.30;;;15.90;99.90;;;;;;5079870;28;20715;-81
2021/07/17 03:41:13;;;;;;;15.13;8.77;;;15.90;99.90;;;;;;5080095;28;20275;-81
2021/07/17 03:43:39;;;;;;;10.80;8.60;;;15.90;99.90;;;;;;5080911;28;20635;-81
2021/07/17 03:46:05;;;;;;;12.43;9.37;;;16.00;99.90;;;;;;5080874;28;20204;-81
2021/07/17 03:48:30;;;;;;;11.60;10.07;;;16.00;99.90;;;;;;5081269;28;20175;-81
2021/07/17 03:50:56;;;;;;;16.43;11.90;;;16.00;99.90;;;;;;5079083;28;20196;-81
2021/07/17 03:53:22;;;;;;;14.57;11.17;;;16.00;99.90;;;;;;5080438;28;20177;-81
2021/07/17 03:55:47;;;;;;;12.93;11.60;;;16.00;99.90;;;;;;5079050;28;20567;-81
2021/07/17 03:58:13;;;;;;;14.57;11.90;;;16.00;99.90;;;;;;5079363;28;20656;-81
2021/07/17 04:00:38;;;;;;;16.40;12.67;;;16.00;99.90;;;;;;5080250;28;20203;-81
2021/07/17 04:03:04;;;;;;;15.87;13.00;;;16.00;99.90;;;;;;5079449;28;20229;-81
2021/07/17 04:05:30;;;;;;;21.00;14.47;;;16.10;99.90;;;;;;5079967;28;20199;-81
2021/07/17 04:07:57;;;;;;;22.37;14.43;;;16.00;99.90;;;;;;5081237;28;20665;-81
2021/07/17 04:10:23;;;;;;;19.43;14.33;;;16.10;99.90;;;;;;5081236;28;20172;-81
2021/07/17 04:12:49;;;;;;;21.97;14.73;;;16.10;99.90;;;;;;5079233;28;20169;-81
2021/07/17 04:15:15;;;;;;;21.00;15.13;;;16.10;99.90;;;;;;5079287;28;20234;-81
2021/07/17 04:17:40;;;;;;;21.03;14.90;;;16.10;99.90;;;;;;5080546;28;20252;-81
2021/07/17 04:20:07;;;;;;;19.17;15.30;;;16.10;99.90;;;;;;5079050;28;20207;-81
2021/07/17 04:22:34;;;;;;;21.63;15.40;;;16.10;99.90;;;;;;5080675;28;20189;-81
2021/07/17 04:24:59;;;;;;;24.70;14.93;;;16.10;99.90;;;;;;5079342;28;20173;-81
2021/07/17 04:27:25;;;;;;;21.60;15.10;;;16.10;99.90;;;;;;5080353;28;20589;-81
2021/07/17 04:29:51;;;;;;;22.10;15.93;;;16.10;99.90;;;;;;5079237;28;20226;-81
2021/07/17 04:32:16;;;;;;;21.77;16.33;;;16.10;99.90;;;;;;5080685;28;20681;-81
2021/07/17 04:34:42;;;;;;;23.97;17.00;;;16.10;99.90;;;;;;5079093;28;20552;-80
2021/07/17 04:37:08;;;;;;;23.67;17.00;;;16.10;99.90;;;;;;5079044;28;20176;-81
2021/07/17 04:39:33;;;;;;;25.70;16.57;;;16.10;99.90;;;;;;5079699;28;20184;-81
2021/07/17 04:41:59;;;;;;;25.60;17.73;;;16.10;99.90;;;;;;5081220;28;20201;-81
2021/07/17 04:44:25;;;;;;;22.67;17.37;;;16.10;99.90;;;;;;5081461;28;20200;-81
2021/07/17 04:46:51;;;;;;;26.17;17.57;;;16.10;99.90;;;;;;5081670;28;20180;-81
2021/07/17 04:49:16;;;;;;;24.40;17.07;;;16.10;99.90;;;;;;5081854;28;20204;-81
2021/07/17 04:51:42;;;;;;;32.47;19.93;;;16.10;99.90;;;;;;5079325;28;20283;-81
2021/07/17 04:54:08;;;;;;;29.63;20.07;;;16.10;99.90;;;;;;5081732;28;20287;-81
2021/07/17 04:56:34;;;;;;;27.17;19.43;;;16.20;99.90;;;;;;5083867;28;20564;-81
2021/07/17 04:58:59;;;;;;;26.10;18.87;;;16.20;99.90;;;;;;5085732;28;20195;-81
2021/07/17 05:01:25;;;;;;;31.70;20.33;;;16.20;99.90;;;;;;5085959;28;20271;-81
2021/07/17 05:03:51;;;;;;;27.87;18.87;;;16.20;99.90;;;;;;5085216;28;20173;-81
2021/07/17 05:06:16;;;;;;;30.73;20.00;;;16.20;99.90;;;;;;5084734;28;20188;-80
2021/07/17 05:08:42;;;;;;;30.33;19.90;;;16.20;99.90;;;;;;5086515;28;20229;-81
2021/07/17 05:11:07;;;;;;;30.67;20.50;;;16.20;99.90;;;;;;5085987;28;20199;-81
2021/07/17 05:13:34;;;;;;;36.67;21.33;;;16.20;99.90;;;;;;5086952;28;20172;-81
2021/07/17 05:15:59;;;;;;;32.70;19.37;;;16.20;99.90;;;;;;5086446;28;20181;-81
2021/07/17 05:18:25;;;;;;;32.70;21.33;;;16.20;99.90;;;;;;5087931;28;20175;-81
2021/07/17 05:20:51;;;;;;;32.63;21.03;;;16.20;99.90;;;;;;5088411;28;20208;-80
2021/07/17 05:23:16;;;;;;;29.33;20.43;;;16.30;99.90;;;;;;5085730;28;20176;-80
2021/07/17 05:25:44;;;;;;;30.23;19.90;;;16.30;99.90;;;;;;5091663;28;20540;-80
2021/07/17 05:28:09;;;;;;;31.13;20.87;;;16.30;99.90;;;;;;5088522;28;20219;-81
2021/07/17 05:30:35;;;;;;;32.33;22.13;;;16.30;99.90;;;;;;5087733;28;20188;-81
2021/07/17 05:33:01;;;;;;;31.23;22.00;;;16.30;99.90;;;;;;5087759;28;20176;-81
2021/07/17 05:35:28;;;;;;;34.67;21.47;;;16.30;99.90;;;;;;5085609;28;20184;-81
2021/07/17 05:37:56;;;;;;;28.97;21.47;;;16.30;99.90;;;;;;5086269;28;20177;-81
2021/07/17 05:40:21;;;;;;;33.93;22.50;;;16.20;99.90;;;;;;5086663;28;20169;-81
2021/07/17 05:42:47;;;;;;;40.07;23.27;;;16.20;99.90;;;;;;5086937;28;20209;-81
2021/07/17 05:45:13;;;;;;;28.43;21.80;;;16.20;99.90;;;;;;5085607;28;20180;-81
2021/07/17 05:47:38;;;;;;;37.03;23.20;;;16.30;99.90;;;;;;5081539;28;20180;-81
2021/07/17 05:50:05;;;;;;;30.57;21.43;;;16.30;99.90;;;;;;5087291;28;20165;-81
2021/07/17 05:52:30;;;;;;;27.13;20.87;;;16.30;99.90;;;;;;5088211;28;20219;-81
2021/07/17 05:54:56;;;;;;;25.30;19.83;;;16.30;99.90;;;;;;5087773;28;20173;-81
2021/07/17 05:57:22;;;;;;;25.80;18.97;;;16.30;99.90;;;;;;5085791;28;20181;-81
2021/07/17 05:59:47;;;;;;;23.27;19.00;;;16.30;99.90;;;;;;5087379;28;20181;-81
2021/07/17 06:02:13;;;;;;;25.70;17.97;;;16.30;99.90;;;;;;5086571;28;20204;-82
2021/07/17 06:04:39;;;;;;;21.20;16.03;;;16.30;99.90;;;;;;5086102;28;20181;-83
2021/07/17 06:07:05;;;;;;;23.93;17.30;;;16.30;99.90;;;;;;5085554;28;20177;-83
2021/07/17 06:09:30;;;;;;;23.53;17.77;;;16.40;99.90;;;;;;5085659;28;20268;-83
2021/07/17 06:11:56;;;;;;;20.97;14.83;;;16.30;99.90;;;;;;5085744;28;20235;-83
2021/07/17 06:14:22;;;;;;;23.33;16.20;;;16.30;99.90;;;;;;5086245;28;20633;-83
2021/07/17 06:16:48;;;;;;;17.33;14.33;;;16.40;99.90;;;;;;5086480;28;20183;-83
2021/07/17 06:19:14;;;;;;;17.07;14.53;;;16.40;99.90;;;;;;5086693;28;20196;-84
2021/07/17 06:21:46;;;;;;;18.37;15.03;;;16.40;99.90;;;;;;5086102;28;20261;-83
2021/07/17 06:24:12;;;;;;;19.30;15.10;;;16.40;99.90;;;;;;5085351;28;20176;-84
2021/07/17 06:26:38;;;;;;;17.27;15.13;;;16.40;99.90;;;;;;5087716;28;20618;-83
2021/07/17 06:29:03;;;;;;;17.80;14.37;;;16.40;99.90;;;;;;5084906;28;20208;-83
2021/07/17 06:31:29;;;;;;;17.53;14.50;;;16.40;99.90;;;;;;5086680;28;20193;-83
2021/07/17 06:33:55;;;;;;;17.43;14.37;;;16.40;99.90;;;;;;5087337;28;20223;-83
2021/07/17 06:36:20;;;;;;;19.07;14.70;;;16.40;99.90;;;;;;5085951;28;20173;-83
2021/07/17 06:38:47;;;;;;;16.43;14.10;;;16.50;99.90;;;;;;5087813;28;20226;-83
2021/07/17 06:41:12;;;;;;;17.50;13.80;;;16.50;99.90;;;;;;5088848;28;20216;-83
2021/07/17 06:43:38;;;;;;;16.50;12.37;;;16.40;99.90;;;;;;5090874;28;20169;-83
2021/07/17 06:46:04;;;;;;;16.93;11.83;;;16.40;99.90;;;;;;5087671;28;20211;-83
2021/07/17 06:48:31;;;;;;;15.03;12.23;;;16.40;99.90;;;;;;5086525;28;20176;-83
2021/07/17 06:50:56;;;;;;;15.07;12.57;;;16.40;99.90;;;;;;5085962;28;20254;-83
2021/07/17 06:53:22;;;;;;;23.73;13.40;;;16.40;99.90;;;;;;5086071;28;20181;-83
2021/07/17 06:55:48;;;;;;;17.07;12.53;;;16.30;99.90;;;;;;5085332;28;20184;-83
2021/07/17 06:58:14;;;;;;;16.50;12.33;;;16.30;99.90;;;;;;5086593;28;20187;-83
2021/07/17 07:00:40;;;;;;;16.57;12.43;;;16.30;99.90;;;;;;5086341;28;20648;-83
2021/07/17 07:03:06;;;;;;;23.63;12.90;;;16.40;99.90;;;;;;5086027;28;20241;-83
2021/07/17 07:05:32;;;;;;;15.67;11.30;;;16.40;99.90;;;;;;5081031;28;20184;-83
2021/07/17 07:07:57;;;;;;;13.97;12.20;;;16.40;99.90;;;;;;5083782;28;20177;-83
2021/07/17 07:10:23;;;;;;;18.23;12.80;;;16.50;99.90;;;;;;5084988;28;20183;-83
2021/07/17 07:12:49;;;;;;;14.77;11.87;;;16.50;99.90;;;;;;5083707;28;20185;-83
2021/07/17 07:15:15;;;;;;;14.57;11.60;;;16.50;99.90;;;;;;5085950;28;20595;-83
2021/07/17 07:17:41;;;;;;;15.77;11.80;;;16.50;99.90;;;;;;5084875;28;20259;-82
2021/07/17 07:20:09;;;;;;;16.60;12.13;;;16.50;99.90;;;;;;5085551;28;20173;-83
2021/07/17 07:22:35;;;;;;;17.80;12.17;;;16.50;99.90;;;;;;5083307;28;20258;-84
2021/07/17 07:25:02;;;;;;;18.23;12.23;;;16.50;99.90;;;;;;5084135;28;20536;-83
2021/07/17 07:27:27;;;;;;;16.13;11.83;;;16.50;99.90;;;;;;5084761;28;20551;-83
2021/07/17 07:29:53;;;;;;;16.33;12.30;;;16.50;99.90;;;;;;5084019;28;20234;-83
2021/07/17 07:32:19;;;;;;;14.73;11.83;;;16.60;99.90;;;;;;5084893;28;20251;-83
2021/07/17 07:34:44;;;;;;;17.60;12.57;;;16.70;99.90;;;;;;5087580;28;20197;-83
2021/07/17 07:37:10;;;;;;;16.10;12.30;;;16.70;99.90;;;;;;5087922;28;20204;-83
2021/07/17 07:39:35;;;;;;;17.53;12.00;;;16.80;99.90;;;;;;5087309;28;20180;-83
2021/07/17 07:42:01;;;;;;;19.43;12.10;;;16.80;99.90;;;;;;5081052;28;20295;-83
2021/07/17 07:44:28;;;;;;;16.67;11.50;;;16.80;99.90;;;;;;5080167;28;20181;-83
2021/07/17 07:46:54;;;;;;;17.40;11.97;;;16.80;99.90;;;;;;5079740;28;20635;-82
2021/07/17 07:49:20;;;;;;;16.23;11.77;;;16.80;99.90;;;;;;5080884;28;20188;-83
2021/07/17 07:51:46;;;;;;;16.80;12.93;;;16.80;99.90;;;;;;5078213;28;20249;-82
2021/07/17 07:54:12;;;;;;;19.37;13.77;;;16.80;99.90;;;;;;5077994;28;20228;-82
2021/07/17 07:56:38;;;;;;;23.73;15.67;;;16.70;99.90;;;;;;5079100;28;20702;-82
2021/07/17 07:59:04;;;;;;;23.43;14.77;;;16.60;99.90;;;;;;5078297;28;20264;-82
2021/07/17 08:01:29;;;;;;;25.40;15.37;;;16.50;99.90;;;;;;5077650;28;20216;-83
2021/07/17 08:03:55;;;;;;;27.97;16.60;;;16.50;99.90;;;;;;5077109;28;20627;-83
2021/07/17 08:06:21;;;;;;;28.17;16.63;;;16.40;99.90;;;;;;5080362;28;20174;-83
2021/07/17 08:08:47;;;;;;;21.47;16.23;;;16.40;99.90;;;;;;5101603;28;20181;-82
2021/07/17 08:11:12;;;;;;;23.40;15.73;;;16.40;99.90;;;;;;5098315;28;20208;-83
2021/07/17 08:13:38;;;;;;;27.00;17.70;;;16.40;99.90;;;;;;5102090;28;20189;-83
2021/07/17 08:16:04;;;;;;;28.27;18.57;;;16.40;99.90;;;;;;5089219;28;20181;-83
2021/07/17 08:18:30;;;;;;;23.80;17.00;;;16.50;99.90;;;;;;5082773;28;20181;-83
2021/07/17 08:20:56;;;;;;;26.83;18.33;;;16.50;99.90;;;;;;5080377;28;20227;-83
2021/07/17 08:23:23;;;;;;;23.30;16.77;;;16.50;99.90;;;;;;5080955;28;20180;-83
2021/07/17 08:25:50;;;;;;;23.57;17.20;;;16.50;99.90;;;;;;5081414;28;20223;-83
2021/07/17 08:28:15;;;;;;;24.87;17.00;;;16.50;99.90;;;;;;5081042;28;20177;-82
2021/07/17 08:30:41;;;;;;;28.40;16.93;;;16.50;99.90;;;;;;5084229;28;20706;-82
2021/07/17 08:33:08;;;;;;;27.87;18.30;;;16.50;99.90;;;;;;5085407;28;20199;-82
2021/07/17 08:35:34;;;;;;;27.27;17.23;;;16.50;99.90;;;;;;5085827;28;20593;-83
2021/07/17 08:38:00;;;;;;;29.37;17.30;;;16.50;99.90;;;;;;5087150;28;20253;-83
2021/07/17 08:40:26;;;;;;;28.67;17.37;;;16.60;99.90;;;;;;5085053;28;20180;-83
2021/07/17 08:42:52;;;;;;;24.73;17.37;;;16.60;99.90;;;;;;5085254;28;20212;-83
2021/07/17 08:45:19;;;;;;;25.73;17.60;;;16.50;99.90;;;;;;5085453;28;20173;-83
2021/07/17 08:47:46;;;;;;;25.53;18.03;;;16.60;99.90;;;;;;5086590;28;20194;-82
2021/07/17 08:50:21;;;;;;;25.93;17.73;;;16.60;99.90;;;;;;5085271;28;20172;-82
2021/07/17 08:52:46;;;;;;;27.67;18.03;;;16.60;99.90;;;;;;5084451;28;20176;-82
2021/07/17 08:55:13;;;;;;;22.73;15.37;;;16.60;99.90;;;;;;5085342;28;20522;-83
2021/07/17 08:57:41;;;;;;;23.03;15.53;;;16.70;99.90;;;;;;5085958;28;20664;-83
2021/07/17 09:00:11;;;;;;;19.50;15.13;;;16.70;99.90;;;;;;5085024;28;20183;-83
2021/07/17 09:02:41;;;;;;;21.97;15.77;;;16.70;99.90;;;;;;5086993;28;20188;-83
2021/07/17 09:05:10;;;;;;;24.40;17.20;;;16.70;99.90;;;;;;5086281;28;20267;-83
2021/07/17 09:07:36;;;;;;;24.37;17.00;;;16.80;99.90;;;;;;5086901;28;20184;-83
2021/07/17 09:10:42;;;;;;;24.57;17.20;;;16.70;99.90;;;;;;5085578;28;20173;-83
2021/07/17 09:13:12;;;;;;;20.27;15.23;;;16.70;99.90;;;;;;5086284;28;20211;-82
2021/07/17 09:16:00;;;;;;;24.57;16.03;;;16.70;99.90;;;;;;5086356;28;20177;-82
2021/07/17 09:18:29;;;;;;;23.47;16.20;;;16.80;99.90;;;;;;5085856;28;20180;-82
2021/07/17 09:20:59;;;;;;;23.87;15.37;;;16.70;99.90;;;;;;5087124;28;20200;-83
2021/07/17 09:23:27;;;;;;;25.40;16.57;;;16.70;99.90;;;;;;5086956;28;20173;-82
2021/07/17 09:25:53;;;;;;;24.90;15.80;;;16.70;99.90;;;;;;5088802;28;20172;-83
2021/07/17 09:28:22;;;;;;;20.53;15.13;;;16.70;99.90;;;;;;5087622;28;20184;-82
2021/07/17 09:30:49;;;;;;;23.70;15.73;;;16.70;99.90;;;;;;5089416;28;20235;-82
2021/07/17 09:33:16;;;;;;;20.73;14.57;;;16.70;99.90;;;;;;5090062;28;20200;-82
2021/07/17 09:35:44;;;;;;;19.93;14.37;;;16.80;99.90;;;;;;5090444;28;20234;-82
2021/07/17 09:38:10;;;;;;;18.23;13.80;;;16.80;99.90;;;;;;5087653;28;20173;-82
2021/07/17 09:40:54;;;;;;;16.90;13.10;;;16.90;99.90;;;;;;5086960;28;20185;-82
2021/07/17 09:43:25;;;;;;;15.37;12.43;;;16.90;99.90;;;;;;5087841;28;20240;-82
2021/07/17 09:45:52;;;;;;;15.13;11.93;;;16.90;99.90;;;;;;5087744;28;20208;-83
2021/07/17 09:48:20;;;;;;;15.73;11.63;;;16.80;99.90;;;;;;5087994;28;20173;-82
2021/07/17 09:50:47;;;;;;;18.43;13.10;;;16.90;99.90;;;;;;5082898;28;20197;-82
2021/07/17 09:53:39;;;;;;;18.70;13.07;;;16.90;99.90;;;;;;5083479;28;20173;-83
2021/07/17 09:56:11;;;;;;;17.60;12.87;;;17.00;99.90;;;;;;5082118;28;20212;-82
2021/07/17 09:58:38;;;;;;;15.10;12.43;;;17.10;99.90;;;;;;5081452;28;20206;-82
2021/07/17 10:01:16;;;;;;;15.97;12.30;;;17.40;99.90;;;;;;5079016;28;20269;-82
2021/07/17 10:03:42;;;;;;;16.27;12.03;;;17.50;99.90;;;;;;5081650;28;20204;-82
2021/07/17 10:06:25;;;;;;;18.10;12.77;;;17.60;99.90;;;;;;5088113;28;20187;-82
2021/07/17 10:08:51;;;;;;;19.30;12.03;;;17.70;99.90;;;;;;5101879;28;20171;-82
2021/07/17 10:11:24;;;;;;;18.40;12.87;;;17.80;99.90;;;;;;5094640;28;20286;-82
2021/07/17 10:13:50;;;;;;;19.63;12.80;;;17.80;99.90;;;;;;5090746;28;20215;-82
2021/07/17 10:16:20;;;;;;;20.83;12.87;;;17.80;99.90;;;;;;5082675;28;20177;-82
2021/07/17 10:18:47;;;;;;;20.80;12.23;;;17.90;99.90;;;;;;5098498;28;20180;-82
2021/07/17 10:21:13;;;;;;;17.77;13.47;;;17.90;99.90;;;;;;5109868;28;20212;-82
2021/07/17 10:23:39;;;;;;;21.90;14.17;;;17.90;99.90;;;;;;5106400;28;20176;-82
2021/07/17 10:26:07;;;;;;;18.10;14.00;;;17.80;99.90;;;;;;5105409;28;20291;-82
2021/07/17 10:28:33;;;;;;;20.23;13.73;;;17.70;99.90;;;;;;5106198;28;20179;-82
2021/07/17 10:31:00;;;;;;;20.13;14.70;;;17.70;99.90;;;;;;5105638;28;20222;-81
2021/07/17 10:33:26;;;;;;;18.03;13.50;;;17.70;99.90;;;;;;5103274;28;20736;-81
2021/07/17 10:35:56;;;;;;;20.30;13.77;;;17.70;99.90;;;;;;5104005;28;20660;-82
2021/07/17 10:38:22;;;;;;;18.60;13.53;;;17.70;99.90;;;;;;5105528;28;20176;-82
2021/07/17 10:40:53;;;;;;;22.37;14.17;;;17.60;99.90;;;;;;5104236;28;20201;-82
2021/07/17 10:43:20;;;;;;;17.03;12.57;;;17.50;99.90;;;;;;5106237;28;20169;-82
2021/07/17 10:45:45;;;;;;;14.33;12.53;;;17.50;99.90;;;;;;5104636;28;20272;-82
2021/07/17 10:48:25;;;;;;;18.43;13.93;;;17.50;99.90;;;;;;5104232;28;20629;-82
2021/07/17 10:50:51;;;;;;;18.87;13.50;;;17.40;99.90;;;;;;5104418;28;20187;-82
2021/07/17 10:53:42;;;;;;;19.03;12.87;;;17.40;99.90;;;;;;5104407;28;20175;-82
2021/07/17 10:56:27;;;;;;;19.43;14.13;;;17.40;99.90;;;;;;5104937;28;20182;-82
2021/07/17 10:59:19;;;;;;;18.80;14.00;;;17.50;99.90;;;;;;5104305;28;20164;-81
2021/07/17 11:02:15;;;;;;;19.40;14.30;;;17.50;99.90;;;;;;5088001;28;20274;-82
2021/07/17 11:04:49;;;;;;;18.77;14.00;;;17.50;99.90;;;;;;5089473;28;20176;-81
2021/07/17 11:07:17;;;;;;;16.93;12.43;;;17.50;99.90;;;;;;5102786;28;20168;-81
2021/07/17 11:10:05;;;;;;;19.43;12.60;;;17.50;99.90;;;;;;5103473;28;20171;-81
2021/07/17 11:12:33;;;;;;;16.00;12.70;;;17.50;99.90;;;;;;5105267;28;20343;-82
2021/07/17 11:15:05;;;;;;;22.00;11.77;;;17.50;99.90;;;;;;5104678;28;20208;-82
2021/07/17 11:17:51;;;;;;;15.00;10.70;;;17.40;99.90;;;;;;5103219;28;20172;-82
2021/07/17 11:20:37;;;;;;;14.00;10.87;;;17.40;99.90;;;;;;5103430;28;20176;-82
2021/07/17 11:23:08;;;;;;;14.53;10.53;;;17.50;99.90;;;;;;5103222;28;20184;-82
2021/07/17 11:25:35;;;;;;;11.40;9.80;;;17.50;99.90;;;;;;5104302;28;20661;-83
2021/07/17 11:28:01;;;;;;;12.20;9.10;;;17.50;99.90;;;;;;5104671;28;20233;-83
2021/07/17 11:30:34;;;;;;;12.83;9.37;;;17.50;99.90;;;;;;5102837;28;20547;-83
2021/07/17 11:33:05;;;;;;;11.57;8.93;;;17.50;99.90;;;;;;5105301;28;20165;-83
2021/07/17 11:35:37;;;;;;;10.37;8.73;;;17.60;99.90;;;;;;5103557;28;20181;-83
2021/07/17 11:38:05;;;;;;;12.77;8.80;;;17.60;99.90;;;;;;5103894;28;20190;-83
2021/07/17 11:40:31;;;;;;;7.20;6.50;;;17.70;99.90;;;;;;5102663;28;20196;-82
2021/07/17 11:43:15;;;;;;;9.17;7.17;;;17.60;99.90;;;;;;5099912;28;20205;-82
2021/07/17 11:45:41;;;;;;;9.43;7.40;;;17.70;99.90;;;;;;5101100;28;20226;-82
2021/07/17 11:48:14;;;;;;;7.70;6.90;;;17.70;99.90;;;;;;5106374;28;20176;-83
2021/07/17 11:50:42;;;;;;;8.63;6.30;;;17.60;99.90;;;;;;5106803;28;20235;-82
2021/07/17 11:53:19;;;;;;;8.13;6.97;;;17.60;99.90;;;;;;5104615;28;20681;-82
2021/07/17 11:56:00;;;;;;;7.40;6.50;;;17.60;99.90;;;;;;5103559;28;20201;-82
2021/07/17 11:58:25;;;;;;;7.77;6.97;;;17.70;99.90;;;;;;5100882;28;20175;-82
2021/07/17 12:01:02;;;;;;;7.80;7.00;;;17.80;99.90;;;;;;5102903;28;20725;-82
2021/07/17 12:03:27;;;;;;;11.03;7.43;;;17.90;99.90;;;;;;5102733;28;20172;-82
2021/07/17 12:05:53;;;;;;;12.77;7.13;;;18.00;99.90;;;;;;5104026;28;20249;-83
2021/07/17 12:08:22;;;;;;;8.13;6.90;;;18.10;99.90;;;;;;5105078;28;20568;-83
2021/07/17 12:10:48;;;;;;;9.67;6.73;;;18.10;99.90;;;;;;5106818;28;20200;-82
2021/07/17 12:13:14;;;;;;;7.80;6.37;;;18.00;99.90;;;;;;5107294;28;20227;-82
2021/07/17 12:15:41;;;;;;;8.47;6.87;;;17.90;99.90;;;;;;5104015;28;20180;-82
2021/07/17 12:18:12;;;;;;;8.90;6.53;;;17.80;99.90;;;;;;5102708;28;20179;-82
2021/07/17 12:20:46;;;;;;;7.67;6.87;;;17.70;99.90;;;;;;5103038;28;20192;-82
2021/07/17 12:23:16;;;;;;;8.93;6.80;;;17.60;99.90;;;;;;5101399;28;20190;-82
2021/07/17 12:25:50;;;;;;;12.10;8.30;;;17.50;99.90;;;;;;5099777;28;20258;-82
2021/07/17 12:28:34;;;;;;;8.77;7.87;;;17.40;99.90;;;;;;5100184;28;20174;-82
2021/07/17 12:31:07;;;;;;;11.63;8.47;;;17.40;99.90;;;;;;5100798;28;20204;-82
2021/07/17 12:33:34;;;;;;;17.17;8.00;;;17.40;99.90;;;;;;5100973;28;20172;-82
2021/07/17 12:36:07;;;;;;;9.17;7.63;;;17.40;99.90;;;;;;5102710;28;20180;-83